Longwood, New York
Current Conditions -  °F | °C
As of 10:51 PM on Tuesday 25 Nov 2014 (Local Time) from KLGA Reporting Station
Overcast Overcast  
Wind Chill: 51°   Ceiling: 15000
Heat Index: 51°   Visibility: 10mi
Dew Point: 29°   Wind: 9mph
Humidity: 43%   Direction: 290°WNW
Pressure: 30.15"   Gusts: NA
Location:  40.8256°N, 73.8935°W
Report Text: KLGA 260351Z 29008KT 10SM OVC150 11/M02 A3015 RMK AO2 SLP209 T01061017
Loading
Personal Weather Stations






























Interactive Weather Map New forecast layout! Learn more

10-Day Weather Forecast

Advertisements
Track Severe Weather on mobile